Terminal Aerodrome Forecast
Issued by NWS Upton, NY

Home | Current Version | Previous Version | Text Only | Print | Product List | Glossary On
Versions: 1 2 3 4 5 6 7 8 9 10 11 12 13 14 15 16 17 18 19 20 21 22 23 24 25 26 27 28
000
FTUS41 KOKX 300535
TAFISP
TAF
KISP 300535Z 3006/3106 21010KT P6SM BKN250
     FM301000 22010KT P6SM OVC080
      TEMPO 3012/3015 6SM -SHRASN BKN030
     FM301500 23014KT P6SM SCT030 OVC040
     FM301900 28014G23KT P6SM BKN040
     FM310000 29010KT P6SM FEW050
     FM310300 28007KT P6SM SKC=

USA.gov is the U.S. government's official web portal to all federal, state and local government web resources and services.